Time;durP1;ratioP1;P1;durP2;ratioP2;P2;SDS_P1;SDS_P2;PMS_P1;PMS_P2;Temp;Humidity;BMP_temperature;BMP_pressure;BME280_temperature;BME280_humidity;BME280_pressure;Samples;Min_cycle;Max_cycle;Signal;HPM_P1;HPM_P2
2023/01/06 00:02:04;;;;;;;2.27;0.73;;;4.60;1.00;;;;;;8381289;28;20185;-86
2023/01/06 00:06:08;;;;;;;5.83;1.50;;;4.60;1.00;;;;;;8381343;28;20212;-88
2023/01/06 00:10:10;;;;;;;2.30;1.23;;;4.60;1.00;;;;;;8380955;28;20395;-87
2023/01/06 00:14:11;;;;;;;1.97;1.30;;;4.60;1.00;;;;;;8381231;28;20177;-86
2023/01/06 00:18:13;;;;;;;1.77;1.03;;;4.60;1.00;;;;;;8368891;28;20266;-86
2023/01/06 00:22:14;;;;;;;1.57;0.80;;;4.50;1.00;;;;;;8366953;28;20184;-87
2023/01/06 00:26:15;;;;;;;3.07;1.10;;;4.50;1.00;;;;;;8359510;28;20238;-88
2023/01/06 00:30:16;;;;;;;2.47;1.10;;;4.50;1.00;;;;;;8335992;28;20658;-87
2023/01/06 00:34:17;;;;;;;3.03;1.00;;;4.50;1.00;;;;;;8335780;28;20216;-86
2023/01/06 00:38:18;;;;;;;4.67;1.67;;;4.50;1.00;;;;;;8343776;28;20245;-88
2023/01/06 00:42:21;;;;;;;3.90;1.13;;;4.50;1.00;;;;;;8333680;28;20198;-87
2023/01/06 00:46:25;;;;;;;3.27;1.17;;;4.50;1.00;;;;;;8333234;28;20210;-87
2023/01/06 00:50:26;;;;;;;2.10;0.90;;;4.50;1.00;;;;;;8338450;28;20219;-86
2023/01/06 00:54:27;;;;;;;5.97;1.93;;;4.50;1.00;;;;;;8330302;28;20185;-87
2023/01/06 00:58:31;;;;;;;5.93;1.83;;;4.50;1.00;;;;;;8339022;28;20189;-87
2023/01/06 01:02:32;;;;;;;3.80;1.70;;;4.40;1.00;;;;;;8335605;28;20191;-87
2023/01/06 01:06:33;;;;;;;6.67;1.70;;;4.40;1.00;;;;;;8329899;28;20209;-87
2023/01/06 01:10:33;;;;;;;3.40;1.30;;;4.40;1.00;;;;;;8333254;28;20192;-87
2023/01/06 01:14:49;;;;;;;5.77;1.57;;;4.40;1.00;;;;;;8340116;28;20282;-86
2023/01/06 01:18:49;;;;;;;2.67;1.20;;;4.40;1.00;;;;;;8357105;28;20236;-87
2023/01/06 01:22:50;;;;;;;5.57;1.40;;;4.40;1.00;;;;;;8339545;28;20187;-86
2023/01/06 01:26:51;;;;;;;4.03;1.20;;;4.40;1.00;;;;;;8333525;28;20349;-87
2023/01/06 01:31:02;;;;;;;3.73;1.13;;;4.30;1.00;;;;;;8334477;28;20193;-88
2023/01/06 01:35:03;;;;;;;1.87;0.80;;;4.20;1.00;;;;;;8336148;28;20216;-86
2023/01/06 01:39:04;;;;;;;4.43;2.57;;;4.10;1.00;;;;;;8346620;28;20201;-86
2023/01/06 01:43:09;;;;;;;2.33;1.10;;;3.90;57.20;;;;;;8341356;28;20197;-87
2023/01/06 01:47:13;;;;;;;1.63;0.77;;;3.70;99.90;;;;;;8343504;28;20216;-87
2023/01/06 01:51:18;;;;;;;2.00;0.80;;;3.50;99.90;;;;;;8331411;28;20200;-87
2023/01/06 01:55:20;;;;;;;1.87;0.67;;;3.30;99.90;;;;;;8353795;28;20282;-87
2023/01/06 01:59:25;;;;;;;1.37;0.77;;;3.10;99.90;;;;;;8337442;28;20198;-86
2023/01/06 02:03:27;;;;;;;2.00;0.70;;;3.00;99.90;;;;;;8344158;28;20199;-87
2023/01/06 02:07:28;;;;;;;1.93;0.57;;;3.00;99.90;;;;;;8343912;28;20272;-87
2023/01/06 02:11:31;;;;;;;1.13;0.53;;;3.10;1.00;;;;;;8336463;28;20211;-87
2023/01/06 02:15:33;;;;;;;1.07;0.90;;;3.10;1.00;;;;;;8343192;28;20357;-87
2023/01/06 02:20:12;;;;;;;1.10;0.53;;;3.10;1.00;;;;;;8338861;28;20239;-88
2023/01/06 02:24:24;;;;;;;1.77;0.57;;;3.20;1.00;;;;;;8337413;28;20217;-87
2023/01/06 02:28:46;;;;;;;0.90;0.60;;;3.20;1.00;;;;;;8349633;28;20276;-87
2023/01/06 02:33:20;;;;;;;0.90;0.60;;;3.20;1.00;;;;;;8344236;28;20199;-87
2023/01/06 02:37:28;;;;;;;1.20;0.60;;;3.30;1.00;;;;;;8285398;28;20202;-87
2023/01/06 02:41:52;;;;;;;0.87;0.63;;;3.40;1.00;;;;;;8349853;28;20221;-87
2023/01/06 02:46:07;;;;;;;2.77;0.90;;;3.50;1.00;;;;;;8337489;28;20348;-86
2023/01/06 02:50:27;;;;;;;2.97;0.70;;;3.50;1.00;;;;;;8336659;28;20197;-87
2023/01/06 02:55:05;;;;;;;2.60;0.70;;;3.50;1.00;;;;;;8332909;28;20194;-87
2023/01/06 02:59:24;;;;;;;2.60;0.83;;;3.60;1.00;;;;;;8338117;28;20546;-86
2023/01/06 03:03:29;;;;;;;1.00;0.60;;;3.60;1.00;;;;;;8356951;28;20184;-88
2023/01/06 03:07:32;;;;;;;2.63;0.50;;;3.60;1.00;;;;;;8380493;28;20214;-87
2023/01/06 03:11:34;;;;;;;1.30;0.60;;;3.50;1.00;;;;;;8384967;28;20202;-87
2023/01/06 03:15:35;;;;;;;2.10;0.60;;;3.50;1.00;;;;;;8378339;28;20242;-86
2023/01/06 03:19:36;;;;;;;1.43;0.53;;;3.50;1.00;;;;;;8374035;28;20287;-86
2023/01/06 03:23:39;;;;;;;1.87;0.50;;;3.60;1.00;;;;;;8368710;28;20364;-85
2023/01/06 03:27:40;;;;;;;0.90;0.60;;;3.60;1.00;;;;;;8360001;28;20236;-87
2023/01/06 03:31:47;;;;;;;1.50;0.80;;;3.60;1.00;;;;;;8350387;28;20174;-86
2023/01/06 03:36:32;;;;;;;2.87;0.93;;;3.70;1.00;;;;;;8339545;28;20224;-87
2023/01/06 03:40:44;;;;;;;1.40;0.63;;;3.70;1.00;;;;;;8327967;28;20197;-86
2023/01/06 03:45:05;;;;;;;2.70;0.73;;;3.70;1.00;;;;;;8334151;28;20521;-87
2023/01/06 03:49:21;;;;;;;1.10;0.70;;;3.80;1.00;;;;;;8337807;28;20257;-87
2023/01/06 03:53:50;;;;;;;1.13;0.57;;;3.80;1.00;;;;;;8333157;28;20200;-87
2023/01/06 03:57:57;;;;;;;1.43;0.70;;;3.80;1.00;;;;;;8303596;28;20193;-87
2023/01/06 04:01:59;;;;;;;1.63;0.77;;;3.90;1.00;;;;;;8331476;28;20193;-87
2023/01/06 04:05:59;;;;;;;1.37;0.73;;;3.90;1.00;;;;;;8336766;28;20215;-87
2023/01/06 04:10:00;;;;;;;3.27;0.77;;;3.90;1.00;;;;;;8335034;28;20197;-87
2023/01/06 04:14:01;;;;;;;2.73;0.73;;;3.90;1.00;;;;;;8324918;28;20182;-86
2023/01/06 04:18:02;;;;;;;4.40;1.37;;;3.90;1.00;;;;;;8283837;28;20197;-87
2023/01/06 04:22:03;;;;;;;1.10;0.70;;;3.90;1.00;;;;;;8318036;28;20182;-87
2023/01/06 04:26:04;;;;;;;2.40;0.80;;;3.80;1.00;;;;;;8330781;28;20213;-87
2023/01/06 04:30:06;;;;;;;2.10;0.80;;;3.80;1.00;;;;;;8325396;28;20194;-86
2023/01/06 04:34:06;;;;;;;1.97;0.87;;;3.80;1.00;;;;;;8339427;28;20198;-86
2023/01/06 04:38:08;;;;;;;0.80;0.60;;;3.70;1.00;;;;;;8331737;28;20208;-86
2023/01/06 04:42:09;;;;;;;2.40;1.00;;;3.70;1.00;;;;;;8330725;28;20186;-87
2023/01/06 04:46:10;;;;;;;2.33;0.60;;;3.70;1.00;;;;;;8333179;28;20213;-87
2023/01/06 04:50:11;;;;;;;2.43;0.60;;;3.80;1.00;;;;;;8336283;28;20266;-87
2023/01/06 04:54:11;;;;;;;2.60;0.87;;;3.80;1.00;;;;;;8337277;28;20187;-87
2023/01/06 04:58:12;;;;;;;1.97;0.90;;;3.80;1.00;;;;;;8333596;28;20197;-87
2023/01/06 05:02:13;;;;;;;2.33;0.90;;;3.90;1.00;;;;;;8342668;28;20260;-86
2023/01/06 05:06:14;;;;;;;1.23;0.80;;;3.90;1.00;;;;;;8336236;28;20248;-85
2023/01/06 05:10:15;;;;;;;1.70;0.90;;;3.90;1.00;;;;;;8333040;28;20189;-88
2023/01/06 05:14:16;;;;;;;1.00;0.77;;;3.90;1.00;;;;;;8339502;28;20275;-87
2023/01/06 05:18:16;;;;;;;2.47;0.93;;;4.00;1.00;;;;;;8337860;28;20227;-87
2023/01/06 05:22:17;;;;;;;2.37;1.03;;;3.90;1.00;;;;;;8341232;28;21839;-87
2023/01/06 05:26:21;;;;;;;1.37;1.10;;;3.90;1.00;;;;;;8333303;28;20219;-86
2023/01/06 05:30:21;;;;;;;1.73;0.67;;;4.00;1.00;;;;;;8337423;28;20482;-86
2023/01/06 05:34:22;;;;;;;2.53;0.80;;;4.00;1.00;;;;;;8331624;28;20300;-85
2023/01/06 05:38:23;;;;;;;1.10;0.93;;;4.00;1.00;;;;;;8341764;28;20206;-86
2023/01/06 05:42:24;;;;;;;3.30;1.57;;;4.00;1.00;;;;;;8339101;28;20249;-86
2023/01/06 05:46:24;;;;;;;1.90;0.97;;;4.00;1.00;;;;;;8343138;28;20260;-87
2023/01/06 05:50:25;;;;;;;2.60;1.10;;;4.00;1.00;;;;;;8330369;28;20179;-86
2023/01/06 05:54:26;;;;;;;1.63;0.80;;;4.00;1.00;;;;;;8338021;28;20186;-87
2023/01/06 05:58:27;;;;;;;3.57;1.27;;;3.90;1.00;;;;;;8344019;28;20202;-87
2023/01/06 06:02:28;;;;;;;3.17;1.30;;;3.90;1.00;;;;;;8334201;28;20242;-87
2023/01/06 06:06:30;;;;;;;2.80;1.87;;;3.80;1.00;;;;;;8340165;28;20198;-86
2023/01/06 06:10:31;;;;;;;3.40;2.23;;;3.80;24.70;;;;;;8334470;28;20189;-86
2023/01/06 06:14:32;;;;;;;7.13;4.97;;;3.60;87.30;;;;;;8340680;28;20176;-86
2023/01/06 06:18:33;;;;;;;4.73;3.47;;;3.50;99.90;;;;;;8333046;28;20182;-85
2023/01/06 06:22:34;;;;;;;8.20;5.30;;;3.30;99.90;;;;;;8347029;28;20234;-86
2023/01/06 06:26:35;;;;;;;10.00;5.57;;;3.20;1.00;;;;;;8378128;28;20230;-86
2023/01/06 06:30:36;;;;;;;8.43;4.00;;;3.20;99.90;;;;;;8378527;28;20249;-87
2023/01/06 06:34:37;;;;;;;7.27;3.67;;;3.20;99.90;;;;;;8370986;28;20468;-87
2023/01/06 06:38:38;;;;;;;12.53;4.10;;;3.30;99.90;;;;;;8370785;28;20206;-87
2023/01/06 06:42:39;;;;;;;9.53;3.73;;;3.20;99.90;;;;;;8365809;28;20183;-87
2023/01/06 06:46:39;;;;;;;6.60;3.13;;;3.30;99.90;;;;;;8348107;28;20234;-87
2023/01/06 06:50:40;;;;;;;11.40;4.10;;;3.30;66.60;;;;;;8334690;28;20188;-87
2023/01/06 06:54:41;;;;;;;10.07;3.80;;;3.30;1.00;;;;;;8345971;28;20253;-87
2023/01/06 06:58:42;;;;;;;10.13;4.63;;;3.30;1.00;;;;;;8335705;28;20238;-87
2023/01/06 07:02:48;;;;;;;8.03;3.27;;;3.30;99.90;;;;;;8334597;28;20190;-86
2023/01/06 07:06:48;;;;;;;15.07;4.70;;;3.40;99.90;;;;;;8339551;28;20228;-86
2023/01/06 07:10:50;;;;;;;8.13;3.07;;;3.40;99.90;;;;;;8335439;28;20192;-87
2023/01/06 07:14:51;;;;;;;10.30;4.37;;;3.40;54.20;;;;;;8335667;28;20196;-86
2023/01/06 07:18:52;;;;;;;10.50;4.20;;;3.40;1.00;;;;;;8331188;28;20196;-86
2023/01/06 07:22:53;;;;;;;7.27;2.83;;;3.40;1.00;;;;;;8335681;28;20641;-86
2023/01/06 07:26:54;;;;;;;17.23;4.73;;;3.40;1.00;;;;;;8339176;28;20772;-86
2023/01/06 07:30:55;;;;;;;4.90;2.80;;;3.50;1.00;;;;;;8334829;28;20193;-86
2023/01/06 07:34:55;;;;;;;10.50;4.20;;;3.50;1.00;;;;;;8334579;28;20207;-86
2023/01/06 07:38:56;;;;;;;8.63;3.87;;;3.60;1.00;;;;;;8333831;28;20255;-86
2023/01/06 07:42:57;;;;;;;8.83;3.87;;;3.60;1.00;;;;;;8340783;28;20196;-86
2023/01/06 07:46:58;;;;;;;27.03;11.43;;;3.70;1.00;;;;;;8334172;28;20213;-87
2023/01/06 07:50:59;;;;;;;32.20;16.63;;;3.70;99.90;;;;;;8343770;28;20334;-86
2023/01/06 07:54:59;;;;;;;15.17;6.13;;;3.90;99.90;;;;;;8332656;28;20189;-88
2023/01/06 07:59:00;;;;;;;11.97;4.27;;;3.90;99.90;;;;;;8332591;28;20245;-87
2023/01/06 08:03:06;;;;;;;10.37;4.73;;;4.00;99.90;;;;;;8335234;28;20185;-86
2023/01/06 08:07:06;;;;;;;11.33;3.97;;;4.10;99.90;;;;;;8336581;28;20736;-80
2023/01/06 08:11:12;;;;;;;10.17;4.10;;;4.40;1.00;;;;;;8326639;28;20205;-80
2023/01/06 08:15:13;;;;;;;10.73;4.67;;;4.50;99.90;;;;;;8333074;28;20186;-80
2023/01/06 08:19:14;;;;;;;17.67;9.73;;;4.50;72.30;;;;;;8330167;28;20211;-81
2023/01/06 08:23:15;;;;;;;13.77;6.40;;;4.50;43.10;;;;;;8331409;28;20563;-81
2023/01/06 08:27:16;;;;;;;10.27;4.60;;;4.50;80.20;;;;;;8334649;28;20213;-80
2023/01/06 08:31:19;;;;;;;6.30;3.23;;;4.50;94.60;;;;;;8329224;28;20276;-80
2023/01/06 08:35:20;;;;;;;8.93;4.30;;;4.70;61.90;;;;;;8333351;28;20212;-79
2023/01/06 08:39:20;;;;;;;10.20;3.83;;;4.70;15.60;;;;;;8326251;28;20190;-79
2023/01/06 08:43:21;;;;;;;6.83;2.67;;;4.80;1.00;;;;;;8336877;28;20182;-80
2023/01/06 08:47:22;;;;;;;6.17;2.33;;;4.90;1.00;;;;;;8331790;28;20209;-80
2023/01/06 08:51:25;;;;;;;8.93;4.73;;;4.90;1.00;;;;;;8331728;28;20219;-80
2023/01/06 08:55:26;;;;;;;11.33;5.20;;;4.90;1.00;;;;;;8332691;28;20186;-81
2023/01/06 08:59:27;;;;;;;10.40;4.13;;;4.90;1.00;;;;;;8334923;28;20354;-80
2023/01/06 09:03:28;;;;;;;5.90;2.93;;;5.00;1.00;;;;;;8328012;28;20197;-80
2023/01/06 09:07:29;;;;;;;4.47;2.80;;;5.10;1.00;;;;;;8327519;28;20217;-80
2023/01/06 09:11:29;;;;;;;6.10;2.33;;;5.30;1.00;;;;;;8324923;28;20251;-80
2023/01/06 09:15:31;;;;;;;5.87;2.57;;;5.30;1.00;;;;;;8335461;28;20502;-80
2023/01/06 09:19:31;;;;;;;5.60;2.40;;;5.40;1.00;;;;;;8331397;28;20197;-80
2023/01/06 09:23:32;;;;;;;7.40;3.00;;;5.50;1.00;;;;;;8339764;28;20273;-78
2023/01/06 09:27:33;;;;;;;5.07;2.40;;;5.50;1.00;;;;;;8321092;28;20245;-78
2023/01/06 09:31:34;;;;;;;9.20;5.43;;;5.50;1.00;;;;;;8324876;28;20198;-79
2023/01/06 09:35:35;;;;;;;5.73;3.97;;;5.60;1.00;;;;;;8339926;28;20325;-78
2023/01/06 09:39:36;;;;;;;8.27;4.97;;;5.70;1.00;;;;;;8339919;28;20225;-80
2023/01/06 09:43:55;;;;;;;10.83;4.30;;;5.90;1.00;;;;;;8342649;28;20595;-79
2023/01/06 09:47:59;;;;;;;5.07;3.40;;;5.90;1.00;;;;;;8335911;28;20224;-79
2023/01/06 09:52:05;;;;;;;7.87;3.80;;;6.00;1.00;;;;;;8335965;28;20191;-79
2023/01/06 09:56:15;;;;;;;7.63;4.10;;;6.00;1.00;;;;;;8329586;28;20195;-79
2023/01/06 10:00:43;;;;;;;4.87;3.37;;;6.10;1.00;;;;;;8326196;28;20198;-79
2023/01/06 10:04:45;;;;;;;9.57;4.13;;;6.10;1.00;;;;;;8350291;28;20190;-80
2023/01/06 10:09:13;;;;;;;9.90;4.37;;;6.20;1.00;;;;;;8335355;28;20309;-80
2023/01/06 10:13:41;;;;;;;8.67;4.20;;;6.20;1.00;;;;;;8331604;28;20276;-80
2023/01/06 10:17:59;;;;;;;6.37;4.23;;;6.20;99.90;;;;;;8341190;28;20209;-80
2023/01/06 10:22:12;;;;;;;7.77;4.33;;;6.30;99.90;;;;;;8333928;28;20197;-80
2023/01/06 10:26:22;;;;;;;10.00;4.60;;;6.30;99.90;;;;;;8349878;28;20205;-79
2023/01/06 10:30:36;;;;;;;7.83;4.57;;;6.50;99.90;;;;;;8326530;28;20193;-79
2023/01/06 10:34:37;;;;;;;8.93;4.70;;;6.50;99.90;;;;;;8330649;28;20211;-80
2023/01/06 10:38:45;;;;;;;9.33;5.63;;;6.40;99.90;;;;;;8332866;28;20232;-80
2023/01/06 10:43:01;;;;;;;8.90;5.63;;;6.40;1.00;;;;;;8335504;28;20557;-80
2023/01/06 10:47:02;;;;;;;7.90;5.70;;;6.30;1.00;;;;;;8346706;28;20300;-80
2023/01/06 10:51:35;;;;;;;14.67;8.10;;;6.30;1.00;;;;;;8336081;28;20186;-81
2023/01/06 10:55:56;;;;;;;14.20;8.33;;;6.20;99.90;;;;;;8333759;28;20195;-80
2023/01/06 11:00:16;;;;;;;11.83;6.77;;;6.10;99.90;;;;;;8334106;28;20191;-80
2023/01/06 11:04:18;;;;;;;12.87;7.20;;;6.10;99.90;;;;;;8345707;28;20266;-81
2023/01/06 11:08:19;;;;;;;11.43;7.73;;;6.00;1.00;;;;;;8331406;28;20263;-81
2023/01/06 11:12:25;;;;;;;13.80;7.50;;;6.10;78.70;;;;;;8334021;28;20205;-80
2023/01/06 11:16:32;;;;;;;54.57;22.00;;;6.10;99.90;;;;;;8332095;28;20190;-80
2023/01/06 11:20:35;;;;;;;39.87;15.60;;;6.20;99.90;;;;;;8329321;28;20186;-81
2023/01/06 11:24:54;;;;;;;20.93;10.67;;;6.40;99.90;;;;;;8335264;28;20190;-80
2023/01/06 11:28:55;;;;;;;20.63;12.13;;;6.50;1.00;;;;;;8329730;28;20189;-80
2023/01/06 11:32:56;;;;;;;22.83;12.33;;;6.70;99.90;;;;;;8326710;28;20190;-81
2023/01/06 11:36:58;;;;;;;20.30;10.90;;;6.70;99.90;;;;;;8323078;28;20232;-81
2023/01/06 11:41:08;;;;;;;11.57;7.53;;;6.80;99.90;;;;;;8312562;28;20191;-81
2023/01/06 11:45:35;;;;;;;13.67;8.23;;;6.80;99.90;;;;;;8350079;28;20191;-80
2023/01/06 11:49:49;;;;;;;10.37;7.57;;;6.90;99.90;;;;;;8330912;28;20278;-80
2023/01/06 11:53:56;;;;;;;12.87;7.73;;;6.80;99.90;;;;;;8351702;28;20193;-81
2023/01/06 11:58:24;;;;;;;12.40;7.87;;;6.90;99.90;;;;;;8330848;28;20294;-80
2023/01/06 12:02:36;;;;;;;11.13;8.07;;;6.90;99.90;;;;;;8317453;28;20186;-80
2023/01/06 12:06:44;;;;;;;11.90;7.97;;;6.90;99.90;;;;;;8329419;28;20267;-81
2023/01/06 12:10:50;;;;;;;12.73;7.03;;;6.90;99.90;;;;;;8325581;28;20193;-80
2023/01/06 12:14:51;;;;;;;12.93;7.63;;;6.90;99.90;;;;;;8324453;28;20189;-80
2023/01/06 12:18:52;;;;;;;10.33;6.97;;;6.90;1.00;;;;;;8330717;28;20182;-80
2023/01/06 12:22:56;;;;;;;14.27;10.70;;;6.90;1.00;;;;;;8337532;28;20186;-80
2023/01/06 12:27:01;;;;;;;14.97;11.13;;;7.00;1.00;;;;;;8336962;28;20216;-80
2023/01/06 12:31:15;;;;;;;14.93;9.87;;;7.00;48.80;;;;;;8310141;28;20192;-79
2023/01/06 12:35:21;;;;;;;10.90;8.47;;;6.90;99.90;;;;;;8337305;28;20206;-80
2023/01/06 12:39:44;;;;;;;12.33;8.13;;;6.90;1.00;;;;;;8344150;28;20325;-80
2023/01/06 12:43:57;;;;;;;19.37;13.03;;;7.00;1.00;;;;;;8318532;28;20320;-80
2023/01/06 12:48:02;;;;;;;14.93;9.63;;;7.00;99.90;;;;;;8336746;28;20248;-80
2023/01/06 12:52:11;;;;;;;15.27;9.17;;;7.20;28.80;;;;;;8338103;28;20206;-81
2023/01/06 12:56:34;;;;;;;15.63;9.63;;;7.30;14.20;;;;;;8351668;28;20182;-81
2023/01/06 13:00:52;;;;;;;11.40;8.43;;;7.40;4.60;;;;;;8327919;28;20213;-80
2023/01/06 13:05:12;;;;;;;9.83;7.97;;;7.40;42.00;;;;;;8335481;28;20189;-81
2023/01/06 13:09:57;;;;;;;9.40;7.30;;;7.50;1.00;;;;;;8332677;28;20191;-81
2023/01/06 13:14:36;;;;;;;12.83;8.47;;;7.50;9.40;;;;;;8334798;28;20201;-80
2023/01/06 13:19:12;;;;;;;10.77;7.47;;;7.60;99.90;;;;;;8354572;28;20259;-80
2023/01/06 13:23:41;;;;;;;12.30;8.03;;;7.80;99.90;;;;;;8311959;28;20190;-80
2023/01/06 13:27:51;;;;;;;13.40;9.20;;;8.00;99.90;;;;;;8334935;28;20260;-81
2023/01/06 13:32:13;;;;;;;11.47;8.33;;;8.10;1.00;;;;;;8332572;28;20182;-81
2023/01/06 13:36:23;;;;;;;15.70;8.43;;;8.20;99.90;;;;;;8336283;28;20209;-81
2023/01/06 13:40:28;;;;;;;12.00;8.23;;;8.30;1.00;;;;;;8337738;28;20281;-81
2023/01/06 13:44:34;;;;;;;12.13;7.73;;;8.40;99.90;;;;;;8332351;28;20190;-81
2023/01/06 13:48:40;;;;;;;9.63;7.20;;;8.40;99.90;;;;;;8334209;28;20242;-81
2023/01/06 13:52:42;;;;;;;9.93;6.87;;;8.50;99.90;;;;;;8332125;28;20185;-81
2023/01/06 13:56:42;;;;;;;8.60;5.97;;;8.60;1.00;;;;;;8342402;28;20197;-81
2023/01/06 14:00:44;;;;;;;9.10;5.60;;;8.70;1.00;;;;;;8334686;28;20189;-81
2023/01/06 14:04:46;;;;;;;6.73;4.97;;;8.70;1.00;;;;;;8334018;28;20186;-81
2023/01/06 14:08:57;;;;;;;8.13;5.53;;;8.80;1.00;;;;;;8334773;28;20214;-82
2023/01/06 14:12:59;;;;;;;7.33;4.83;;;8.80;1.00;;;;;;8352196;28;20194;-81
2023/01/06 14:17:00;;;;;;;6.57;4.90;;;8.80;1.00;;;;;;8334165;28;20533;-81
2023/01/06 14:21:24;;;;;;;7.60;4.00;;;8.80;1.00;;;;;;8336650;28;20248;-80
2023/01/06 14:25:27;;;;;;;5.90;5.00;;;8.80;1.00;;;;;;8331427;28;20199;-80
2023/01/06 14:29:43;;;;;;;6.60;5.00;;;8.90;1.00;;;;;;8332806;28;21696;-81
2023/01/06 14:33:51;;;;;;;6.87;4.67;;;8.90;99.90;;;;;;8335787;28;20194;-81
2023/01/06 14:38:03;;;;;;;5.60;4.70;;;8.90;99.90;;;;;;8323270;28;20198;-80
2023/01/06 14:42:31;;;;;;;6.43;4.27;;;8.90;99.90;;;;;;8339873;28;20194;-80
2023/01/06 14:46:40;;;;;;;7.87;4.27;;;8.90;1.00;;;;;;8339061;28;20206;-81
2023/01/06 14:50:46;;;;;;;5.17;3.87;;;8.90;99.90;;;;;;8341386;28;20195;-80
2023/01/06 14:54:49;;;;;;;5.33;3.60;;;8.80;99.90;;;;;;8330211;28;20246;-80
2023/01/06 14:58:50;;;;;;;5.97;3.60;;;8.80;1.00;;;;;;8334197;28;20213;-80
2023/01/06 15:02:53;;;;;;;7.00;4.40;;;8.70;1.00;;;;;;8335132;28;20271;-81
2023/01/06 15:07:00;;;;;;;8.10;4.67;;;8.70;99.90;;;;;;8335116;28;20206;-80
2023/01/06 15:11:23;;;;;;;5.93;4.77;;;8.60;39.30;;;;;;8333508;28;20221;-80
2023/01/06 15:15:32;;;;;;;8.20;5.33;;;8.60;99.90;;;;;;8334289;28;20194;-80
2023/01/06 15:19:34;;;;;;;7.93;5.47;;;8.60;99.90;;;;;;8338517;28;20253;-80
2023/01/06 15:23:41;;;;;;;7.33;4.63;;;8.60;99.90;;;;;;8333317;28;20194;-80
2023/01/06 15:27:45;;;;;;;7.63;5.00;;;8.70;99.90;;;;;;8332073;28;20214;-80
2023/01/06 15:31:49;;;;;;;6.27;4.40;;;8.70;99.90;;;;;;8332298;28;20182;-80
2023/01/06 15:35:51;;;;;;;8.27;5.30;;;8.70;99.90;;;;;;8353961;28;20209;-86
2023/01/06 15:39:53;;;;;;;6.23;3.80;;;8.70;99.90;;;;;;8345110;28;20193;-86
2023/01/06 15:43:54;;;;;;;6.60;4.07;;;8.70;99.90;;;;;;8344591;28;20192;-86
2023/01/06 15:47:57;;;;;;;4.77;3.23;;;8.70;99.90;;;;;;8349655;28;20291;-86
2023/01/06 15:52:11;;;;;;;7.53;3.17;;;8.70;99.90;;;;;;8355525;28;20200;-87
2023/01/06 15:56:26;;;;;;;4.50;2.93;;;8.70;99.90;;;;;;8354558;28;20183;-88
2023/01/06 16:00:40;;;;;;;3.43;2.80;;;8.70;99.90;;;;;;8346515;28;20183;-87
2023/01/06 16:04:44;;;;;;;5.40;3.10;;;8.70;99.90;;;;;;8341803;28;20187;-88
2023/01/06 16:08:46;;;;;;;4.10;2.93;;;8.70;99.90;;;;;;8343681;28;20260;-87
2023/01/06 16:13:14;;;;;;;3.70;2.83;;;8.70;99.90;;;;;;8337496;28;20195;-87
2023/01/06 16:17:32;;;;;;;3.93;3.03;;;8.60;99.90;;;;;;8341452;28;20293;-87
2023/01/06 16:21:34;;;;;;;4.67;3.03;;;8.60;99.90;;;;;;8337605;28;20251;-87
2023/01/06 16:25:35;;;;;;;3.13;2.60;;;8.60;99.90;;;;;;8337265;28;20201;-87
2023/01/06 16:29:37;;;;;;;3.77;2.60;;;8.60;99.90;;;;;;8330050;28;20209;-87
2023/01/06 16:33:42;;;;;;;7.77;2.70;;;8.60;99.90;;;;;;8333177;28;20198;-87
2023/01/06 16:37:44;;;;;;;3.83;2.57;;;8.60;99.90;;;;;;8334192;28;20265;-87
2023/01/06 16:46:33;;;;;;;4.50;2.53;;;8.60;99.90;;;;;;8331062;28;20220;-87
2023/01/06 16:50:40;;;;;;;6.20;3.03;;;8.60;99.90;;;;;;8335380;28;20274;-87
2023/01/06 16:54:42;;;;;;;3.90;3.00;;;8.60;99.90;;;;;;8339312;28;20194;-87
2023/01/06 16:58:43;;;;;;;5.07;3.83;;;8.60;99.90;;;;;;8338804;28;20192;-87
2023/01/06 17:02:45;;;;;;;4.50;3.40;;;8.60;99.90;;;;;;8341447;28;20228;-88
2023/01/06 17:06:45;;;;;;;6.13;3.80;;;8.60;99.90;;;;;;8339447;28;20245;-87
2023/01/06 17:10:46;;;;;;;6.07;3.97;;;8.60;99.90;;;;;;8338264;28;20321;-87
2023/01/06 17:14:47;;;;;;;6.07;4.40;;;8.50;99.90;;;;;;8341361;28;20185;-87
2023/01/06 17:19:00;;;;;;;7.00;4.70;;;8.50;99.90;;;;;;8340777;28;20183;-87
2023/01/06 17:23:01;;;;;;;7.90;4.90;;;8.50;99.90;;;;;;8342492;28;20500;-87
2023/01/06 17:27:20;;;;;;;7.27;4.77;;;8.50;99.90;;;;;;8336101;28;20226;-87
2023/01/06 17:31:38;;;;;;;6.47;4.97;;;8.50;99.90;;;;;;8332827;28;20186;-88
2023/01/06 17:39:57;;;;;;;6.23;4.50;;;8.50;99.90;;;;;;8388922;27;20385;-68
2023/01/06 17:43:58;;;;;;;7.77;5.10;;;8.50;99.90;;;;;;8337763;28;20224;-69
2023/01/06 17:47:59;;;;;;;6.00;4.63;;;8.50;99.90;;;;;;8317502;28;20235;-69
2023/01/06 17:52:14;;;;;;;5.37;4.20;;;8.50;99.90;;;;;;8326226;28;20272;-70
2023/01/06 17:56:16;;;;;;;7.17;4.17;;;8.50;99.90;;;;;;8328232;28;20277;-69
2023/01/06 18:00:23;;;;;;;6.53;3.83;;;8.40;99.90;;;;;;8330320;28;20182;-68
2023/01/06 18:04:24;;;;;;;5.13;3.53;;;8.40;99.90;;;;;;8327876;28;20202;-69
2023/01/06 18:08:26;;;;;;;4.40;3.23;;;8.40;99.90;;;;;;8331799;28;20264;-69
2023/01/06 18:12:28;;;;;;;5.10;3.47;;;8.40;99.90;;;;;;8324109;28;20190;-69
2023/01/06 18:16:32;;;;;;;4.80;3.10;;;8.40;99.90;;;;;;8329513;28;20298;-68
2023/01/06 18:20:33;;;;;;;5.80;2.70;;;8.50;99.90;;;;;;8327237;28;20285;-69
2023/01/06 18:24:37;;;;;;;4.83;2.97;;;8.50;99.90;;;;;;8332096;28;20190;-68
2023/01/06 18:28:38;;;;;;;4.30;2.33;;;8.50;99.90;;;;;;8329550;28;20256;-69
2023/01/06 18:32:41;;;;;;;4.53;2.60;;;8.50;99.90;;;;;;8329604;28;20221;-73
2023/01/06 18:36:45;;;;;;;2.63;1.83;;;8.50;99.90;;;;;;8323767;28;20255;-69
2023/01/06 18:40:46;;;;;;;3.43;2.10;;;8.50;90.40;;;;;;8328349;28;20187;-69
2023/01/06 18:44:48;;;;;;;2.80;2.00;;;8.40;1.00;;;;;;8323380;28;20281;-69
2023/01/06 18:48:49;;;;;;;2.23;1.53;;;8.40;1.00;;;;;;8309316;28;20202;-69
2023/01/06 18:52:51;;;;;;;2.37;1.53;;;8.40;1.00;;;;;;8302946;28;20204;-69
2023/01/06 18:56:52;;;;;;;2.57;1.70;;;8.30;1.00;;;;;;8323884;28;20218;-70
2023/01/06 19:00:56;;;;;;;1.50;1.13;;;8.20;1.00;;;;;;8301361;28;20191;-70
2023/01/06 19:04:57;;;;;;;1.87;1.27;;;8.30;89.70;;;;;;8298326;28;20194;-70
2023/01/06 19:09:01;;;;;;;2.70;1.50;;;8.30;55.40;;;;;;8298539;28;20264;-72
2023/01/06 19:13:09;;;;;;;1.70;1.10;;;8.30;13.80;;;;;;8319296;28;20312;-69
2023/01/06 19:17:25;;;;;;;3.07;1.20;;;8.40;1.00;;;;;;8300011;28;20229;-69
2023/01/06 19:21:27;;;;;;;3.90;1.20;;;8.40;99.90;;;;;;8319126;28;20222;-69
2023/01/06 19:25:39;;;;;;;2.50;1.63;;;8.40;99.90;;;;;;8297718;28;20648;-70
2023/01/06 19:29:40;;;;;;;2.90;1.47;;;8.40;99.90;;;;;;8293796;28;20376;-70
2023/01/06 19:33:49;;;;;;;1.63;1.30;;;8.40;99.90;;;;;;8304127;28;20214;-70
2023/01/06 19:37:59;;;;;;;1.70;1.03;;;8.40;71.30;;;;;;8300117;28;20495;-70
2023/01/06 19:42:14;;;;;;;1.93;1.23;;;8.30;99.90;;;;;;8303619;28;20187;-70
2023/01/06 19:46:23;;;;;;;1.90;1.20;;;8.20;99.90;;;;;;8300860;28;20278;-70
2023/01/06 19:50:24;;;;;;;1.70;1.20;;;8.10;99.90;;;;;;8301925;28;20191;-71
2023/01/06 19:54:35;;;;;;;3.63;1.20;;;8.00;1.00;;;;;;8301425;28;20190;-70
2023/01/06 19:58:36;;;;;;;1.33;0.93;;;7.90;99.90;;;;;;8299074;28;20301;-70
2023/01/06 20:02:44;;;;;;;1.87;1.30;;;7.80;1.00;;;;;;8300781;28;20194;-70
2023/01/06 20:06:44;;;;;;;4.47;1.20;;;7.90;27.00;;;;;;8301984;28;20281;-71
2023/01/06 20:10:45;;;;;;;2.60;1.60;;;7.90;99.90;;;;;;8300984;28;20198;-71
2023/01/06 20:14:46;;;;;;;3.73;1.40;;;7.90;99.90;;;;;;8301004;28;20607;-70
2023/01/06 20:18:49;;;;;;;1.93;1.17;;;8.00;99.90;;;;;;8295075;28;20248;-70
2023/01/06 20:22:50;;;;;;;1.67;1.17;;;8.00;89.20;;;;;;8298394;28;20194;-70
2023/01/06 20:26:51;;;;;;;1.40;1.00;;;8.10;1.00;;;;;;8301724;28;20194;-70
2023/01/06 20:30:52;;;;;;;2.67;1.27;;;8.10;99.90;;;;;;8298121;28;20292;-69
2023/01/06 20:34:53;;;;;;;1.70;1.30;;;8.10;99.90;;;;;;8300595;28;20219;-70
2023/01/06 20:38:54;;;;;;;2.23;1.00;;;8.10;99.90;;;;;;8303314;28;20804;-72
2023/01/06 20:42:54;;;;;;;3.00;1.40;;;8.10;1.00;;;;;;8300286;28;21111;-68
2023/01/06 20:46:56;;;;;;;2.57;1.20;;;7.90;99.90;;;;;;8299060;28;21414;-69
2023/01/06 20:50:57;;;;;;;2.03;1.10;;;7.80;99.90;;;;;;8300638;28;20202;-70
2023/01/06 20:54:59;;;;;;;2.37;1.40;;;7.70;99.90;;;;;;8300029;28;20218;-70
2023/01/06 20:59:00;;;;;;;1.47;1.30;;;7.60;1.00;;;;;;8298393;28;20214;-70
2023/01/06 21:03:02;;;;;;;1.70;1.30;;;7.50;1.00;;;;;;8298496;28;20186;-70
2023/01/06 21:07:03;;;;;;;1.73;1.10;;;7.30;1.00;;;;;;8300340;28;20193;-69
2023/01/06 21:11:04;;;;;;;1.70;1.23;;;7.20;99.90;;;;;;8298000;28;20193;-71
2023/01/06 21:15:09;;;;;;;2.00;1.13;;;7.20;99.90;;;;;;8294628;28;20194;-69
2023/01/06 21:19:10;;;;;;;1.80;1.43;;;7.20;99.90;;;;;;8292289;28;20206;-70
2023/01/06 21:23:11;;;;;;;3.10;1.70;;;7.20;99.90;;;;;;8301627;28;20217;-70
2023/01/06 21:27:12;;;;;;;3.47;1.83;;;7.10;99.90;;;;;;8297957;28;20194;-69
2023/01/06 21:31:13;;;;;;;1.90;1.50;;;7.10;99.90;;;;;;8292878;28;20201;-70
2023/01/06 21:35:15;;;;;;;2.60;2.03;;;7.10;99.90;;;;;;8300797;28;20253;-69
2023/01/06 21:39:16;;;;;;;1.93;1.53;;;7.00;99.90;;;;;;8301428;28;20622;-70
2023/01/06 21:43:18;;;;;;;2.30;1.53;;;7.00;99.90;;;;;;8301819;28;20190;-71
2023/01/06 21:47:18;;;;;;;2.80;1.50;;;7.00;99.90;;;;;;8297528;28;20201;-70
2023/01/06 21:51:21;;;;;;;4.43;1.70;;;7.00;99.90;;;;;;8294782;28;20284;-68